createdAt,value
2019-06-20T00:00:32.225Z,81.35
2019-06-20T00:03:00.822Z,79.26
2019-06-20T00:05:29.461Z,80.08
2019-06-20T00:07:58.092Z,80.15
2019-06-20T00:10:26.688Z,79.83
2019-06-20T00:13:00.425Z,79.92
2019-06-20T00:15:25.624Z,80.03
2019-06-20T00:17:54.126Z,80.75
2019-06-20T00:20:22.715Z,81.09
2019-06-20T00:22:51.242Z,81.28
2019-06-20T00:25:19.788Z,81.43
2019-06-20T00:27:48.304Z,81.51
2019-06-20T00:30:17.067Z,80.83
2019-06-20T00:32:45.588Z,81.31
2019-06-20T00:35:14.258Z,81.50
2019-06-20T00:37:42.864Z,81.41
2019-06-20T00:40:12.723Z,81.54
2019-06-20T00:42:41.252Z,81.58
2019-06-20T00:45:10.326Z,81.55
2019-06-20T00:47:38.961Z,81.74
2019-06-20T00:50:07.841Z,82.09
2019-06-20T00:52:36.337Z,82.45
2019-06-20T00:55:07.948Z,82.21
2019-06-20T00:57:36.477Z,81.90
2019-06-20T01:00:09.049Z,81.87
2019-06-20T01:02:37.579Z,81.70
2019-06-20T01:05:06.545Z,82.30
2019-06-20T01:07:35.081Z,81.97
2019-06-20T01:10:04.911Z,82.26
2019-06-20T01:12:33.434Z,82.13
2019-06-20T01:15:02.047Z,82.08
2019-06-20T01:17:30.566Z,81.97
2019-06-20T01:19:59.097Z,82.08
2019-06-20T01:22:27.634Z,81.51
2019-06-20T01:24:56.160Z,81.53
2019-06-20T01:27:24.700Z,81.71
2019-06-20T01:29:53.267Z,81.79
2019-06-20T01:32:21.755Z,81.77
2019-06-20T01:34:50.273Z,81.39
2019-06-20T01:37:18.871Z,81.98
2019-06-20T01:39:47.400Z,83.07
2019-06-20T01:42:16.094Z,82.68
2019-06-20T01:44:44.629Z,82.77
2019-06-20T01:47:13.235Z,82.32
2019-06-20T01:49:41.780Z,82.62
2019-06-20T01:52:10.316Z,82.74
2019-06-20T01:54:38.864Z,83.19
2019-06-20T01:57:07.463Z,83.50
2019-06-20T01:59:35.990Z,84.10
2019-06-20T02:02:04.748Z,84.02
2019-06-20T02:04:33.345Z,83.63
2019-06-20T02:07:01.883Z,83.61
2019-06-20T02:09:30.472Z,83.07
2019-06-20T02:11:58.976Z,82.80
2019-06-20T02:14:27.509Z,82.59
2019-06-20T02:16:56.072Z,82.19
2019-06-20T02:19:24.677Z,82.24
2019-06-20T02:21:53.221Z,82.20
2019-06-20T02:24:21.755Z,82.16
2019-06-20T02:26:50.281Z,82.25
2019-06-20T02:29:18.835Z,82.08
2019-06-20T02:31:47.371Z,82.11
2019-06-20T02:34:15.879Z,81.91
2019-06-20T02:36:44.413Z,81.76
2019-06-20T02:39:12.978Z,81.43
2019-06-20T02:41:41.564Z,81.82
2019-06-20T02:44:28.472Z,82.46
2019-06-20T02:46:40.430Z,83.45
2019-06-20T02:49:09.013Z,83.57
2019-06-20T02:51:37.769Z,83.42
2019-06-20T02:54:06.321Z,82.80
2019-06-20T02:56:35.131Z,82.83
2019-06-20T02:59:03.875Z,82.32
2019-06-20T03:01:32.418Z,81.15
2019-06-20T03:04:00.974Z,80.76
2019-06-20T03:06:29.564Z,81.55
2019-06-20T03:08:58.082Z,81.32
2019-06-20T03:11:26.621Z,81.00
2019-06-20T03:13:55.142Z,80.74
2019-06-20T03:16:23.677Z,81.56
2019-06-20T03:18:52.216Z,82.33
2019-06-20T03:21:20.745Z,83.87
2019-06-20T03:23:49.265Z,84.37
2019-06-20T03:26:17.877Z,84.18
2019-06-20T03:28:46.402Z,83.77
2019-06-20T03:31:14.921Z,83.96
2019-06-20T03:33:43.729Z,83.89
2019-06-20T03:36:12.263Z,83.56
2019-06-20T03:38:40.798Z,82.75
2019-06-20T03:41:09.313Z,81.97
2019-06-20T03:43:37.931Z,81.10
2019-06-20T03:46:06.539Z,81.28
2019-06-20T03:48:35.083Z,81.82
2019-06-20T03:51:03.627Z,81.40
2019-06-20T03:53:32.225Z,81.55
2019-06-20T03:56:00.751Z,81.35
2019-06-20T03:58:29.291Z,81.52
2019-06-20T04:00:57.825Z,81.43
2019-06-20T04:03:26.345Z,81.09
2019-06-20T04:05:54.878Z,81.09
2019-06-20T04:08:23.405Z,80.89
2019-06-20T04:10:52.240Z,80.90
2019-06-20T04:13:20.791Z,80.78
2019-06-20T04:15:49.337Z,81.08
2019-06-20T04:18:18.008Z,80.69
2019-06-20T04:20:46.533Z,80.49
2019-06-20T04:23:15.087Z,80.48
2019-06-20T04:25:43.647Z,80.28
2019-06-20T04:28:12.146Z,80.69
2019-06-20T04:30:40.720Z,80.79
2019-06-20T04:33:09.220Z,80.72
2019-06-20T04:35:37.741Z,80.83
2019-06-20T04:38:06.277Z,80.87
2019-06-20T04:40:34.899Z,80.71
2019-06-20T04:43:03.464Z,80.77
2019-06-20T04:45:35.503Z,80.98
2019-06-20T04:48:03.911Z,81.15
2019-06-20T04:50:32.484Z,81.38
2019-06-20T04:53:01.018Z,81.12
2019-06-20T04:55:29.606Z,81.17
2019-06-20T04:57:58.154Z,81.23
2019-06-20T05:00:26.822Z,81.63
2019-06-20T05:02:55.342Z,81.46
2019-06-20T05:05:23.939Z,81.60
2019-06-20T05:07:52.472Z,81.97
2019-06-20T05:10:20.978Z,81.82
2019-06-20T05:12:51.136Z,81.91
2019-06-20T05:15:19.781Z,81.09
2019-06-20T05:17:48.314Z,80.91
2019-06-20T05:20:16.933Z,80.40
2019-06-20T05:22:45.485Z,81.02
2019-06-20T05:25:14.341Z,80.53
2019-06-20T05:27:42.876Z,80.87
2019-06-20T05:30:12.429Z,80.72
2019-06-20T05:32:40.976Z,80.43
2019-06-20T05:35:10.054Z,80.75
2019-06-20T05:37:38.737Z,80.96
2019-06-20T05:40:10.425Z,80.63
2019-06-20T05:42:38.934Z,81.14
2019-06-20T05:45:07.992Z,80.93
2019-06-20T05:47:36.539Z,80.59
2019-06-20T05:50:09.820Z,80.95
2019-06-20T05:52:38.447Z,80.51
2019-06-20T05:55:10.031Z,80.52
2019-06-20T05:57:38.546Z,80.13
2019-06-20T06:00:10.882Z,79.77
2019-06-20T06:02:40.278Z,79.92
2019-06-20T06:05:09.166Z,79.70
2019-06-20T06:07:37.766Z,79.67
2019-06-20T06:10:07.954Z,79.72
2019-06-20T06:12:36.513Z,79.24
2019-06-20T06:15:09.842Z,79.38
2019-06-20T06:17:38.718Z,79.45
2019-06-20T06:20:08.997Z,79.38
2019-06-20T06:22:37.606Z,78.99
2019-06-20T06:25:06.868Z,78.32
2019-06-20T06:27:35.542Z,77.84
2019-06-20T06:30:06.669Z,77.73
2019-06-20T06:32:39.919Z,77.95
2019-06-20T06:35:08.831Z,78.55
2019-06-20T06:37:37.445Z,78.37
2019-06-20T06:40:08.176Z,78.57
2019-06-20T06:42:36.725Z,78.70
2019-06-20T06:45:08.972Z,78.60
2019-06-20T06:47:37.754Z,77.16
2019-06-20T06:50:07.335Z,77.66
2019-06-20T06:52:36.005Z,77.38
2019-06-20T06:55:05.266Z,77.32
2019-06-20T06:57:33.877Z,77.12
2019-06-20T07:00:02.577Z,75.23
2019-06-20T07:02:31.244Z,73.84
2019-06-20T07:04:59.747Z,74.06
2019-06-20T07:07:28.264Z,75.31
2019-06-20T07:09:56.807Z,75.62
2019-06-20T07:12:25.403Z,76.25
2019-06-20T07:14:53.942Z,74.82
2019-06-20T07:17:22.485Z,73.89
2019-06-20T07:19:51.013Z,76.53
2019-06-20T07:22:19.568Z,75.50
2019-06-20T07:24:48.133Z,72.89
2019-06-20T07:27:16.656Z,70.88
2019-06-20T07:29:45.246Z,65.09
2019-06-20T07:32:13.826Z,61.57
2019-06-20T07:34:42.331Z,60.18
2019-06-20T07:37:10.863Z,59.64
2019-06-20T07:39:39.494Z,58.66
2019-06-20T07:42:08.008Z,56.66
2019-06-20T07:44:36.543Z,55.92
2019-06-20T07:47:16.937Z,56.66
2019-06-20T07:49:35.334Z,55.65
2019-06-20T07:52:03.882Z,55.80
2019-06-20T07:54:32.400Z,56.08
2019-06-20T07:57:00.957Z,56.29
2019-06-20T07:59:29.476Z,56.59
2019-06-20T08:01:58.022Z,55.87
2019-06-20T08:04:26.642Z,56.57
2019-06-20T08:06:55.194Z,56.94
2019-06-20T08:09:23.719Z,58.47
2019-06-20T08:11:52.266Z,59.08
2019-06-20T08:14:20.914Z,60.91
2019-06-20T08:16:49.469Z,61.02
2019-06-20T08:19:18.102Z,61.46
2019-06-20T08:21:46.999Z,61.29
2019-06-20T08:24:15.557Z,59.26
2019-06-20T08:26:44.156Z,58.78
2019-06-20T08:29:20.638Z,59.27
2019-06-20T08:31:42.970Z,57.09
2019-06-20T08:34:11.526Z,57.57
2019-06-20T08:36:40.051Z,58.33
2019-06-20T08:39:10.298Z,56.91
2019-06-20T08:41:38.938Z,57.32
2019-06-20T08:44:07.698Z,57.85
2019-06-20T08:46:36.565Z,58.25
2019-06-20T08:49:05.824Z,57.94
2019-06-20T08:51:34.361Z,58.30
2019-06-20T08:54:03.423Z,58.71
2019-06-20T08:56:32.143Z,58.01
2019-06-20T08:59:00.752Z,58.34
2019-06-20T09:01:29.894Z,57.68
2019-06-20T09:03:58.694Z,58.63
2019-06-20T09:06:27.330Z,58.65
2019-06-20T09:08:56.728Z,58.23
2019-06-20T09:11:26.090Z,56.78
2019-06-20T09:13:55.437Z,56.88
2019-06-20T09:16:24.953Z,57.61
2019-06-20T09:18:54.916Z,57.04
2019-06-20T09:21:23.989Z,55.03
2019-06-20T09:23:54.053Z,53.70
2019-06-20T09:26:22.759Z,55.13
2019-06-20T09:28:52.728Z,55.06
2019-06-20T09:31:21.560Z,54.96
2019-06-20T09:33:52.149Z,55.82
2019-06-20T09:36:20.519Z,56.24
2019-06-20T09:38:49.067Z,56.35
2019-06-20T09:41:17.585Z,58.03
2019-06-20T09:43:46.111Z,58.25
2019-06-20T09:46:14.642Z,58.55
2019-06-20T09:48:43.162Z,59.15
2019-06-20T09:51:11.702Z,58.67
2019-06-20T09:53:40.241Z,62.14
2019-06-20T09:56:08.882Z,62.14
2019-06-20T09:58:37.482Z,63.81
2019-06-20T10:01:06.146Z,66.49
2019-06-20T10:03:34.679Z,69.84
2019-06-20T10:06:13.302Z,71.98
2019-06-20T10:08:33.528Z,72.35
2019-06-20T10:11:02.060Z,73.51
2019-06-20T10:13:32.818Z,75.90
2019-06-20T10:16:00.917Z,78.00
2019-06-20T10:18:29.491Z,77.51
2019-06-20T10:20:58.039Z,75.36
2019-06-20T10:23:26.552Z,77.29
2019-06-20T10:25:55.181Z,79.10
2019-06-20T10:28:23.773Z,79.67
2019-06-20T10:30:53.451Z,77.90
2019-06-20T10:33:22.023Z,77.98
2019-06-20T10:35:50.573Z,79.50
2019-06-20T10:38:19.107Z,78.75
2019-06-20T10:40:47.983Z,78.11
2019-06-20T10:43:16.575Z,79.79
2019-06-20T10:45:45.839Z,80.91
2019-06-20T10:48:14.422Z,82.08
2019-06-20T10:50:44.036Z,81.85
2019-06-20T10:53:12.834Z,80.33
2019-06-20T10:55:42.103Z,80.73
2019-06-20T10:58:11.662Z,82.71
2019-06-20T11:00:41.760Z,83.76
2019-06-20T11:03:10.653Z,83.01
2019-06-20T11:05:40.494Z,82.15
2019-06-20T11:08:09.541Z,81.75
2019-06-20T11:10:40.034Z,81.23
2019-06-20T11:13:08.818Z,81.11
2019-06-20T11:15:38.949Z,81.10
2019-06-20T11:18:08.081Z,79.57
2019-06-20T11:20:37.834Z,79.03
2019-06-20T11:23:07.172Z,78.70
2019-06-20T11:25:36.973Z,79.45
2019-06-20T11:28:06.026Z,80.41
2019-06-20T11:30:48.013Z,82.73
2019-06-20T11:33:05.358Z,82.83
2019-06-20T11:35:35.957Z,82.65
2019-06-20T11:38:04.742Z,82.49
2019-06-20T11:40:33.351Z,83.19
2019-06-20T11:43:01.882Z,83.87
2019-06-20T11:45:30.475Z,82.27
2019-06-20T11:47:59.010Z,81.08
2019-06-20T11:50:27.916Z,82.01
2019-06-20T11:52:56.506Z,82.27
2019-06-20T11:55:25.106Z,80.70
2019-06-20T11:57:53.663Z,79.85
2019-06-20T12:00:22.555Z,78.94
2019-06-20T12:02:51.118Z,79.14
2019-06-20T12:05:19.991Z,80.39
2019-06-20T12:07:50.018Z,80.21
2019-06-20T12:10:19.344Z,80.62
2019-06-20T12:12:49.155Z,80.04
2019-06-20T12:15:18.698Z,78.94
2019-06-20T12:17:47.463Z,77.79
2019-06-20T12:20:17.807Z,73.62
2019-06-20T12:22:46.681Z,70.73
2019-06-20T12:25:15.534Z,69.40
2019-06-20T12:27:45.460Z,72.46
2019-06-20T12:30:15.730Z,72.69
2019-06-20T12:32:44.694Z,76.50
2019-06-20T12:35:13.855Z,73.54
2019-06-20T12:37:42.705Z,73.08
2019-06-20T12:40:12.108Z,76.87
2019-06-20T12:42:41.810Z,75.63
2019-06-20T12:45:11.346Z,75.81
2019-06-20T12:47:40.582Z,75.63
2019-06-20T12:50:10.528Z,76.89
2019-06-20T12:52:40.715Z,77.60
2019-06-20T12:55:11.102Z,76.22
2019-06-20T12:57:40.363Z,75.49
2019-06-20T13:00:12.003Z,75.38
2019-06-20T13:02:42.038Z,74.82
2019-06-20T13:05:11.293Z,77.14
2019-06-20T13:07:40.718Z,72.89
2019-06-20T13:10:10.523Z,74.97
2019-06-20T13:12:40.697Z,71.28
2019-06-20T13:15:09.797Z,73.83
2019-06-20T13:17:39.932Z,71.01
2019-06-20T13:20:10.164Z,71.87
2019-06-20T13:22:39.513Z,71.87
2019-06-20T13:25:09.175Z,71.24
2019-06-20T13:27:39.078Z,70.20
2019-06-20T13:30:08.387Z,70.20
2019-06-20T13:32:38.448Z,68.04
2019-06-20T13:35:08.632Z,67.42
2019-06-20T13:37:38.222Z,66.58
2019-06-20T13:40:11.323Z,65.15
2019-06-20T13:42:41.996Z,66.68
2019-06-20T13:45:21.483Z,63.88
2019-06-20T13:47:50.078Z,64.49
2019-06-20T13:50:19.154Z,63.44
2019-06-20T13:52:49.595Z,63.09
2019-06-20T13:55:18.256Z,62.70
2019-06-20T13:57:47.204Z,62.42
2019-06-20T14:00:17.591Z,59.07
2019-06-20T14:02:47.005Z,61.56
2019-06-20T14:05:16.969Z,61.91
2019-06-20T14:07:48.417Z,61.42
2019-06-20T14:10:16.561Z,61.72
2019-06-20T14:12:46.727Z,63.17
2019-06-20T14:15:15.726Z,61.52
2019-06-20T14:17:44.915Z,62.46
2019-06-20T14:20:14.105Z,61.59
2019-06-20T14:22:42.932Z,59.83
2019-06-20T14:25:12.020Z,59.97
2019-06-20T14:27:40.576Z,60.12
2019-06-20T14:30:09.729Z,60.16
2019-06-20T14:32:38.344Z,60.17
2019-06-20T14:35:07.052Z,59.90
2019-06-20T14:37:35.667Z,60.39
2019-06-20T14:40:07.509Z,58.68
2019-06-20T14:42:36.142Z,59.20
2019-06-20T14:45:08.041Z,64.26
2019-06-20T14:47:36.940Z,64.19
2019-06-20T14:50:09.528Z,61.52
2019-06-20T14:52:38.188Z,61.19
2019-06-20T14:55:07.872Z,62.07
2019-06-20T14:57:36.488Z,62.08
2019-06-20T15:00:07.063Z,61.56
2019-06-20T15:02:38.823Z,61.07
2019-06-20T15:05:16.994Z,60.83
2019-06-20T15:07:47.220Z,61.00
2019-06-20T15:10:17.014Z,61.21
2019-06-20T15:12:47.682Z,60.51
2019-06-20T15:15:16.299Z,61.11
2019-06-20T15:17:46.762Z,60.92
2019-06-20T15:20:15.657Z,60.81
2019-06-20T15:22:46.740Z,60.36
2019-06-20T15:25:15.182Z,58.90
2019-06-20T15:27:43.752Z,59.26
2019-06-20T15:30:12.423Z,58.02
2019-06-20T15:32:53.387Z,57.73
2019-06-20T15:35:11.406Z,56.93
2019-06-20T15:37:39.944Z,55.10
2019-06-20T15:40:08.621Z,56.88
2019-06-20T15:42:37.319Z,55.45
2019-06-20T15:45:07.184Z,56.37
2019-06-20T15:47:35.777Z,56.76
2019-06-20T15:50:06.870Z,56.63
2019-06-20T15:52:35.555Z,56.60
2019-06-20T15:55:05.560Z,56.71
2019-06-20T15:57:34.153Z,57.59
2019-06-20T16:00:02.963Z,58.20
2019-06-20T16:02:31.474Z,58.26
2019-06-20T16:05:00.016Z,58.39
2019-06-20T16:07:28.581Z,59.14
2019-06-20T16:09:57.155Z,59.30
2019-06-20T16:12:25.730Z,59.14
2019-06-20T16:14:54.252Z,58.96
2019-06-20T16:17:22.858Z,58.82
2019-06-20T16:19:51.393Z,58.56
2019-06-20T16:22:19.940Z,58.00
2019-06-20T16:24:48.463Z,57.85
2019-06-20T16:27:17.005Z,58.77
2019-06-20T16:29:45.549Z,57.84
2019-06-20T16:32:14.071Z,58.62
2019-06-20T16:34:42.613Z,57.87
2019-06-20T16:37:11.138Z,57.97
2019-06-20T16:39:39.751Z,59.40
2019-06-20T16:42:08.284Z,60.98
2019-06-20T16:44:36.818Z,60.98
2019-06-20T16:47:05.416Z,60.46
2019-06-20T16:49:33.988Z,60.10
2019-06-20T16:52:02.661Z,61.04
2019-06-20T16:54:31.183Z,63.48
2019-06-20T16:56:59.730Z,64.10
2019-06-20T16:59:28.370Z,67.16
2019-06-20T17:01:56.967Z,68.47
2019-06-20T17:04:25.525Z,68.64
2019-06-20T17:06:54.165Z,69.96
2019-06-20T17:09:22.744Z,69.12
2019-06-20T17:11:51.253Z,68.46
2019-06-20T17:14:19.884Z,66.55
2019-06-20T17:16:48.567Z,68.50
2019-06-20T17:19:17.103Z,68.50
2019-06-20T17:21:45.676Z,67.87
2019-06-20T17:24:14.489Z,67.63
2019-06-20T17:26:42.230Z,68.51
2019-06-20T17:29:10.802Z,68.11
2019-06-20T17:31:39.521Z,68.11
2019-06-20T17:34:08.053Z,67.75
2019-06-20T17:36:36.683Z,68.83
2019-06-20T17:39:07.826Z,68.26
2019-06-20T17:41:36.487Z,68.90
2019-06-20T17:44:05.265Z,68.31
2019-06-20T17:46:33.789Z,67.62
2019-06-20T17:49:02.332Z,69.12
2019-06-20T17:51:30.933Z,71.18
2019-06-20T17:53:59.565Z,71.57
2019-06-20T17:56:28.178Z,71.83
2019-06-20T17:58:56.711Z,71.83
2019-06-20T18:01:25.236Z,72.25
2019-06-20T18:04:10.146Z,68.84
2019-06-20T18:06:26.946Z,66.76
2019-06-20T18:08:55.666Z,66.76
2019-06-20T18:11:24.446Z,66.38
2019-06-20T18:13:53.222Z,67.76
2019-06-20T18:16:33.556Z,67.77
2019-06-20T18:19:03.482Z,64.40
2019-06-20T18:21:31.935Z,64.35
2019-06-20T18:24:02.054Z,64.54
2019-06-20T18:26:30.650Z,66.66
2019-06-20T18:28:59.206Z,68.16
2019-06-20T18:31:27.728Z,70.12
2019-06-20T18:33:56.257Z,68.44
2019-06-20T18:36:24.790Z,69.60
2019-06-20T18:38:53.298Z,69.73
2019-06-20T18:41:21.843Z,71.74
2019-06-20T18:43:50.387Z,73.00
2019-06-20T18:46:18.909Z,73.79
2019-06-20T18:48:47.489Z,74.88
2019-06-20T18:51:15.996Z,74.66
2019-06-20T18:53:44.524Z,75.97
2019-06-20T18:56:12.453Z,76.16
2019-06-20T18:58:40.971Z,76.98
2019-06-20T19:01:09.502Z,77.11
2019-06-20T19:03:38.071Z,79.60
2019-06-20T19:06:06.663Z,80.02
2019-06-20T19:08:35.198Z,79.19
2019-06-20T19:11:03.899Z,77.61
2019-06-20T19:13:32.596Z,79.23
2019-06-20T19:16:01.362Z,80.31
2019-06-20T19:18:29.874Z,81.36
2019-06-20T19:20:58.431Z,81.35
2019-06-20T19:23:27.092Z,82.03
2019-06-20T19:25:55.711Z,81.59
2019-06-20T19:28:24.338Z,82.57
2019-06-20T19:30:53.210Z,83.89
2019-06-20T19:33:21.792Z,84.40
2019-06-20T19:35:50.317Z,85.44
2019-06-20T19:38:18.875Z,85.72
2019-06-20T19:40:49.271Z,85.88
2019-06-20T19:43:17.862Z,84.44
2019-06-20T19:45:46.723Z,83.30
2019-06-20T19:48:15.975Z,84.35
2019-06-20T19:50:44.933Z,85.81
2019-06-20T19:53:13.803Z,85.27
2019-06-20T19:55:42.706Z,85.04
2019-06-20T19:58:11.305Z,85.35
2019-06-20T20:00:39.827Z,85.33
2019-06-20T20:03:08.593Z,85.43
2019-06-20T20:05:37.257Z,84.50
2019-06-20T20:08:06.574Z,84.93
2019-06-20T20:10:48.731Z,85.62
2019-06-20T20:13:18.188Z,85.67
2019-06-20T20:15:47.099Z,85.20
2019-06-20T20:18:16.344Z,86.30
2019-06-20T20:20:47.649Z,87.11
2019-06-20T20:23:16.498Z,87.52
2019-06-20T20:25:45.187Z,87.75
2019-06-20T20:28:13.790Z,87.45
2019-06-20T20:30:42.556Z,87.55
2019-06-20T20:33:11.231Z,87.49
2019-06-20T20:35:39.775Z,87.24
2019-06-20T20:38:08.400Z,87.95
2019-06-20T20:40:36.924Z,87.34
2019-06-20T20:43:05.892Z,86.74
2019-06-20T20:45:34.436Z,85.94
2019-06-20T20:48:03.038Z,86.11
2019-06-20T20:50:31.758Z,86.69
2019-06-20T20:53:02.986Z,86.44
2019-06-20T20:55:31.509Z,87.25
2019-06-20T20:58:00.048Z,86.97
2019-06-20T21:00:34.432Z,86.67
2019-06-20T21:03:02.971Z,86.69
2019-06-20T21:05:31.572Z,87.57
2019-06-20T21:08:00.102Z,88.30
2019-06-20T21:10:28.740Z,88.96
2019-06-20T21:12:57.262Z,88.95
2019-06-20T21:15:25.933Z,88.77
2019-06-20T21:17:55.776Z,88.84
2019-06-20T21:20:24.706Z,89.09
2019-06-20T21:22:56.058Z,89.11
2019-06-20T21:25:24.599Z,88.82
2019-06-20T21:27:53.119Z,88.81
2019-06-20T21:30:21.907Z,88.53
2019-06-20T21:32:50.500Z,88.55
2019-06-20T21:35:19.087Z,88.57
2019-06-20T21:37:47.641Z,88.61
2019-06-20T21:40:16.326Z,89.14
2019-06-20T21:42:44.855Z,89.00
2019-06-20T21:45:29.573Z,88.52
2019-06-20T21:47:53.778Z,88.57
2019-06-20T21:50:22.458Z,87.60
2019-06-20T21:52:50.980Z,87.40
2019-06-20T21:55:19.653Z,87.60
2019-06-20T21:57:48.299Z,87.57
2019-06-20T22:00:38.967Z,87.51
2019-06-20T22:03:07.793Z,87.86
2019-06-20T22:05:36.364Z,86.44
2019-06-20T22:08:05.680Z,86.47
2019-06-20T22:10:34.358Z,86.00
2019-06-20T22:13:03.061Z,86.33
2019-06-20T22:15:31.665Z,87.15
2019-06-20T22:18:00.329Z,87.64
2019-06-20T22:20:29.183Z,87.73
2019-06-20T22:22:57.646Z,87.94
2019-06-20T22:25:26.195Z,87.94
2019-06-20T22:27:54.776Z,88.25
2019-06-20T22:30:44.639Z,88.25
2019-06-20T22:33:13.164Z,87.77
2019-06-20T22:35:45.673Z,87.69
2019-06-20T22:38:13.274Z,87.37
2019-06-20T22:40:41.844Z,87.27
2019-06-20T22:43:10.374Z,87.76
2019-06-20T22:45:39.009Z,87.76
2019-06-20T22:48:07.843Z,87.97
2019-06-20T22:50:36.531Z,88.37
2019-06-20T22:53:05.130Z,88.06
2019-06-20T22:55:33.968Z,88.38
2019-06-20T22:58:02.687Z,88.47
2019-06-20T23:00:31.370Z,88.72
2019-06-20T23:02:59.899Z,88.01
2019-06-20T23:05:28.483Z,87.72
2019-06-20T23:07:56.993Z,87.98
2019-06-20T23:10:25.485Z,89.05
2019-06-20T23:12:53.973Z,89.38
2019-06-20T23:15:22.696Z,88.89
2019-06-20T23:17:51.236Z,88.57
2019-06-20T23:20:19.923Z,88.70
2019-06-20T23:22:48.444Z,88.66
2019-06-20T23:25:17.318Z,88.78
2019-06-20T23:27:45.785Z,88.90
2019-06-20T23:30:16.055Z,88.52
2019-06-20T23:32:44.555Z,88.64
2019-06-20T23:35:13.279Z,88.62
2019-06-20T23:37:41.815Z,88.60
2019-06-20T23:40:11.744Z,89.23
2019-06-20T23:42:40.257Z,89.48
2019-06-20T23:45:09.908Z,89.31
2019-06-20T23:47:38.390Z,89.09
2019-06-20T23:50:09.986Z,89.29
2019-06-20T23:52:46.196Z,89.92
2019-06-20T23:55:14.701Z,90.59
2019-06-20T23:57:43.197Z,90.79
